sensor_id;sensor_type;location;lat;lon;timestamp;P1;durP1;ratioP1;P2;durP2;ratioP2
10511;SDS011;5304;48.604;2.096;2022-08-19T00:02:02;8.77;;;7.70;;
10511;SDS011;5304;48.604;2.096;2022-08-19T00:04:47;9.30;;;7.50;;
10511;SDS011;5304;48.604;2.096;2022-08-19T00:07:36;8.37;;;7.50;;
10511;SDS011;5304;48.604;2.096;2022-08-19T00:10:23;9.13;;;7.70;;
10511;SDS011;5304;48.604;2.096;2022-08-19T00:13:07;9.53;;;7.60;;
10511;SDS011;5304;48.604;2.096;2022-08-19T00:15:53;12.40;;;7.90;;
10511;SDS011;5304;48.604;2.096;2022-08-19T00:18:38;11.53;;;7.87;;
10511;SDS011;5304;48.604;2.096;2022-08-19T00:21:23;10.03;;;7.87;;
10511;SDS011;5304;48.604;2.096;2022-08-19T00:24:11;9.93;;;8.50;;
10511;SDS011;5304;48.604;2.096;2022-08-19T00:26:57;14.23;;;9.03;;
10511;SDS011;5304;48.604;2.096;2022-08-19T00:29:42;10.20;;;8.23;;
10511;SDS011;5304;48.604;2.096;2022-08-19T00:32:27;11.40;;;8.37;;
10511;SDS011;5304;48.604;2.096;2022-08-19T00:35:11;9.17;;;7.90;;
10511;SDS011;5304;48.604;2.096;2022-08-19T00:37:56;9.47;;;8.37;;
10511;SDS011;5304;48.604;2.096;2022-08-19T00:40:42;10.10;;;8.47;;
10511;SDS011;5304;48.604;2.096;2022-08-19T00:43:29;11.00;;;8.20;;
10511;SDS011;5304;48.604;2.096;2022-08-19T00:46:14;13.27;;;9.27;;
10511;SDS011;5304;48.604;2.096;2022-08-19T00:48:59;9.97;;;8.20;;
10511;SDS011;5304;48.604;2.096;2022-08-19T00:51:47;11.60;;;9.00;;
10511;SDS011;5304;48.604;2.096;2022-08-19T00:54:35;9.63;;;8.60;;
10511;SDS011;5304;48.604;2.096;2022-08-19T00:57:30;11.20;;;9.27;;
10511;SDS011;5304;48.604;2.096;2022-08-19T01:00:20;10.70;;;7.93;;
10511;SDS011;5304;48.604;2.096;2022-08-19T01:03:07;12.23;;;8.20;;
10511;SDS011;5304;48.604;2.096;2022-08-19T01:05:54;14.97;;;8.93;;
10511;SDS011;5304;48.604;2.096;2022-08-19T01:08:40;11.37;;;7.70;;
10511;SDS011;5304;48.604;2.096;2022-08-19T01:11:25;11.73;;;8.37;;
10511;SDS011;5304;48.604;2.096;2022-08-19T01:14:12;10.33;;;8.87;;
10511;SDS011;5304;48.604;2.096;2022-08-19T01:16:58;9.90;;;8.70;;
10511;SDS011;5304;48.604;2.096;2022-08-19T01:19:43;11.97;;;9.00;;
10511;SDS011;5304;48.604;2.096;2022-08-19T01:22:31;10.90;;;8.93;;
10511;SDS011;5304;48.604;2.096;2022-08-19T01:25:34;11.90;;;8.30;;
10511;SDS011;5304;48.604;2.096;2022-08-19T01:28:26;12.80;;;9.30;;
10511;SDS011;5304;48.604;2.096;2022-08-19T01:31:21;10.80;;;8.80;;
10511;SDS011;5304;48.604;2.096;2022-08-19T01:34:07;10.73;;;9.13;;
10511;SDS011;5304;48.604;2.096;2022-08-19T01:36:52;13.50;;;10.03;;
10511;SDS011;5304;48.604;2.096;2022-08-19T01:39:37;12.20;;;8.20;;
10511;SDS011;5304;48.604;2.096;2022-08-19T01:42:24;10.57;;;8.47;;
10511;SDS011;5304;48.604;2.096;2022-08-19T01:45:08;14.80;;;8.80;;
10511;SDS011;5304;48.604;2.096;2022-08-19T01:47:53;11.60;;;8.47;;
10511;SDS011;5304;48.604;2.096;2022-08-19T01:50:39;10.13;;;9.13;;
10511;SDS011;5304;48.604;2.096;2022-08-19T01:53:23;10.40;;;8.47;;
10511;SDS011;5304;48.604;2.096;2022-08-19T01:56:08;11.23;;;8.57;;
10511;SDS011;5304;48.604;2.096;2022-08-19T01:58:54;9.10;;;8.20;;
10511;SDS011;5304;48.604;2.096;2022-08-19T02:01:43;11.93;;;9.13;;
10511;SDS011;5304;48.604;2.096;2022-08-19T02:04:28;11.97;;;8.80;;
10511;SDS011;5304;48.604;2.096;2022-08-19T02:07:12;10.93;;;9.17;;
10511;SDS011;5304;48.604;2.096;2022-08-19T02:09:56;11.47;;;9.27;;
10511;SDS011;5304;48.604;2.096;2022-08-19T02:12:41;12.33;;;9.13;;
10511;SDS011;5304;48.604;2.096;2022-08-19T02:15:26;11.73;;;9.40;;
10511;SDS011;5304;48.604;2.096;2022-08-19T02:18:11;10.93;;;9.80;;
10511;SDS011;5304;48.604;2.096;2022-08-19T02:20:55;14.47;;;9.63;;
10511;SDS011;5304;48.604;2.096;2022-08-19T02:23:40;11.87;;;8.90;;
10511;SDS011;5304;48.604;2.096;2022-08-19T02:26:25;11.67;;;8.77;;
10511;SDS011;5304;48.604;2.096;2022-08-19T02:29:10;11.57;;;9.07;;
10511;SDS011;5304;48.604;2.096;2022-08-19T02:31:54;11.73;;;9.30;;
10511;SDS011;5304;48.604;2.096;2022-08-19T02:34:39;10.73;;;8.50;;
10511;SDS011;5304;48.604;2.096;2022-08-19T02:37:24;11.90;;;9.80;;
10511;SDS011;5304;48.604;2.096;2022-08-19T02:40:28;11.57;;;9.57;;
10511;SDS011;5304;48.604;2.096;2022-08-19T02:43:18;12.13;;;9.50;;
10511;SDS011;5304;48.604;2.096;2022-08-19T02:46:16;13.30;;;9.90;;
10511;SDS011;5304;48.604;2.096;2022-08-19T02:49:05;14.47;;;10.17;;
10511;SDS011;5304;48.604;2.096;2022-08-19T02:51:51;14.47;;;9.30;;
10511;SDS011;5304;48.604;2.096;2022-08-19T02:54:35;11.20;;;9.40;;
10511;SDS011;5304;48.604;2.096;2022-08-19T02:57:21;10.70;;;9.47;;
10511;SDS011;5304;48.604;2.096;2022-08-19T03:00:06;11.97;;;9.00;;
10511;SDS011;5304;48.604;2.096;2022-08-19T03:02:52;13.60;;;9.67;;
10511;SDS011;5304;48.604;2.096;2022-08-19T03:05:37;11.23;;;9.37;;
10511;SDS011;5304;48.604;2.096;2022-08-19T03:08:23;11.33;;;10.23;;
10511;SDS011;5304;48.604;2.096;2022-08-19T03:11:13;13.40;;;10.20;;
10511;SDS011;5304;48.604;2.096;2022-08-19T03:14:06;15.97;;;10.93;;
10511;SDS011;5304;48.604;2.096;2022-08-19T03:16:52;12.80;;;9.87;;
10511;SDS011;5304;48.604;2.096;2022-08-19T03:19:37;12.23;;;9.53;;
10511;SDS011;5304;48.604;2.096;2022-08-19T03:22:22;12.83;;;10.10;;
10511;SDS011;5304;48.604;2.096;2022-08-19T03:25:06;12.30;;;10.70;;
10511;SDS011;5304;48.604;2.096;2022-08-19T03:27:51;14.00;;;10.77;;
10511;SDS011;5304;48.604;2.096;2022-08-19T03:30:36;12.73;;;10.03;;
10511;SDS011;5304;48.604;2.096;2022-08-19T03:33:20;14.90;;;10.17;;
10511;SDS011;5304;48.604;2.096;2022-08-19T03:36:14;12.73;;;10.40;;
10511;SDS011;5304;48.604;2.096;2022-08-19T03:39:01;12.63;;;9.90;;
10511;SDS011;5304;48.604;2.096;2022-08-19T03:41:46;13.27;;;10.50;;
10511;SDS011;5304;48.604;2.096;2022-08-19T03:44:33;16.20;;;10.33;;
10511;SDS011;5304;48.604;2.096;2022-08-19T03:47:19;14.80;;;11.30;;
10511;SDS011;5304;48.604;2.096;2022-08-19T03:50:04;16.87;;;11.20;;
10511;SDS011;5304;48.604;2.096;2022-08-19T03:52:50;14.90;;;11.13;;
10511;SDS011;5304;48.604;2.096;2022-08-19T03:55:39;12.07;;;10.63;;
10511;SDS011;5304;48.604;2.096;2022-08-19T03:58:24;12.90;;;10.23;;
10511;SDS011;5304;48.604;2.096;2022-08-19T04:01:09;13.80;;;10.37;;
10511;SDS011;5304;48.604;2.096;2022-08-19T04:03:56;13.63;;;9.93;;
10511;SDS011;5304;48.604;2.096;2022-08-19T04:06:42;15.10;;;10.10;;
10511;SDS011;5304;48.604;2.096;2022-08-19T04:09:27;15.93;;;10.00;;
10511;SDS011;5304;48.604;2.096;2022-08-19T04:12:12;13.70;;;10.53;;
10511;SDS011;5304;48.604;2.096;2022-08-19T04:14:56;12.07;;;10.07;;
10511;SDS011;5304;48.604;2.096;2022-08-19T04:17:42;13.10;;;10.80;;
10511;SDS011;5304;48.604;2.096;2022-08-19T04:20:26;13.60;;;9.80;;
10511;SDS011;5304;48.604;2.096;2022-08-19T04:23:11;16.50;;;10.60;;
10511;SDS011;5304;48.604;2.096;2022-08-19T04:25:56;18.67;;;10.10;;
10511;SDS011;5304;48.604;2.096;2022-08-19T04:28:41;14.53;;;9.40;;
10511;SDS011;5304;48.604;2.096;2022-08-19T04:31:28;14.60;;;9.60;;
10511;SDS011;5304;48.604;2.096;2022-08-19T04:34:15;13.50;;;10.70;;
10511;SDS011;5304;48.604;2.096;2022-08-19T04:37:01;11.33;;;10.10;;
10511;SDS011;5304;48.604;2.096;2022-08-19T04:39:55;16.17;;;10.20;;
10511;SDS011;5304;48.604;2.096;2022-08-19T04:42:58;12.47;;;9.90;;
10511;SDS011;5304;48.604;2.096;2022-08-19T04:45:44;11.83;;;9.87;;
10511;SDS011;5304;48.604;2.096;2022-08-19T04:48:29;12.87;;;9.73;;
10511;SDS011;5304;48.604;2.096;2022-08-19T04:51:14;13.63;;;9.87;;
10511;SDS011;5304;48.604;2.096;2022-08-19T04:53:59;12.67;;;9.13;;
10511;SDS011;5304;48.604;2.096;2022-08-19T04:56:44;14.60;;;9.40;;
10511;SDS011;5304;48.604;2.096;2022-08-19T04:59:29;14.80;;;9.67;;
10511;SDS011;5304;48.604;2.096;2022-08-19T05:02:13;13.70;;;9.03;;
10511;SDS011;5304;48.604;2.096;2022-08-19T05:04:57;10.67;;;8.87;;
10511;SDS011;5304;48.604;2.096;2022-08-19T05:07:45;10.63;;;9.53;;
10511;SDS011;5304;48.604;2.096;2022-08-19T05:10:29;10.77;;;8.57;;
10511;SDS011;5304;48.604;2.096;2022-08-19T05:13:14;12.23;;;9.00;;
10511;SDS011;5304;48.604;2.096;2022-08-19T05:16:00;11.57;;;8.93;;
10511;SDS011;5304;48.604;2.096;2022-08-19T05:18:45;12.50;;;9.23;;
10511;SDS011;5304;48.604;2.096;2022-08-19T05:21:50;12.10;;;8.97;;
10511;SDS011;5304;48.604;2.096;2022-08-19T05:24:53;12.10;;;9.17;;
10511;SDS011;5304;48.604;2.096;2022-08-19T05:27:38;12.67;;;8.50;;
10511;SDS011;5304;48.604;2.096;2022-08-19T05:30:23;11.13;;;8.50;;
10511;SDS011;5304;48.604;2.096;2022-08-19T05:33:07;9.57;;;7.57;;
10511;SDS011;5304;48.604;2.096;2022-08-19T05:35:53;9.30;;;8.03;;
10511;SDS011;5304;48.604;2.096;2022-08-19T05:38:39;11.53;;;8.13;;
10511;SDS011;5304;48.604;2.096;2022-08-19T05:41:24;11.90;;;8.17;;
10511;SDS011;5304;48.604;2.096;2022-08-19T05:44:13;9.67;;;7.90;;
10511;SDS011;5304;48.604;2.096;2022-08-19T05:46:59;8.33;;;7.43;;
10511;SDS011;5304;48.604;2.096;2022-08-19T05:49:46;9.83;;;7.07;;
10511;SDS011;5304;48.604;2.096;2022-08-19T05:52:31;9.40;;;7.20;;
10511;SDS011;5304;48.604;2.096;2022-08-19T05:55:16;8.37;;;7.57;;
10511;SDS011;5304;48.604;2.096;2022-08-19T05:58:00;10.50;;;7.20;;
10511;SDS011;5304;48.604;2.096;2022-08-19T06:00:45;9.07;;;7.30;;
10511;SDS011;5304;48.604;2.096;2022-08-19T06:03:30;8.40;;;7.07;;
10511;SDS011;5304;48.604;2.096;2022-08-19T06:06:21;7.43;;;6.30;;
10511;SDS011;5304;48.604;2.096;2022-08-19T06:09:06;5.90;;;5.30;;
10511;SDS011;5304;48.604;2.096;2022-08-19T06:11:52;6.83;;;5.83;;
10511;SDS011;5304;48.604;2.096;2022-08-19T06:14:41;7.87;;;5.33;;
10511;SDS011;5304;48.604;2.096;2022-08-19T06:17:26;6.70;;;4.73;;
10511;SDS011;5304;48.604;2.096;2022-08-19T06:20:12;7.30;;;5.33;;
10511;SDS011;5304;48.604;2.096;2022-08-19T06:22:59;6.80;;;5.07;;
10511;SDS011;5304;48.604;2.096;2022-08-19T06:39:15;6.63;;;4.30;;
10511;SDS011;5304;48.604;2.096;2022-08-19T06:42:07;4.43;;;4.03;;
10511;SDS011;5304;48.604;2.096;2022-08-19T06:44:54;3.90;;;3.50;;
10511;SDS011;5304;48.604;2.096;2022-08-19T06:47:39;4.57;;;4.10;;
10511;SDS011;5304;48.604;2.096;2022-08-19T06:50:24;4.93;;;3.93;;
10511;SDS011;5304;48.604;2.096;2022-08-19T06:53:08;4.20;;;3.80;;
10511;SDS011;5304;48.604;2.096;2022-08-19T06:55:53;3.63;;;3.33;;
10511;SDS011;5304;48.604;2.096;2022-08-19T06:58:43;4.37;;;3.83;;
10511;SDS011;5304;48.604;2.096;2022-08-19T07:01:28;4.20;;;3.27;;
10511;SDS011;5304;48.604;2.096;2022-08-19T07:04:13;4.33;;;3.47;;
10511;SDS011;5304;48.604;2.096;2022-08-19T07:07:07;3.93;;;3.07;;
10511;SDS011;5304;48.604;2.096;2022-08-19T07:09:55;4.37;;;3.10;;
10511;SDS011;5304;48.604;2.096;2022-08-19T07:12:40;4.70;;;3.47;;
10511;SDS011;5304;48.604;2.096;2022-08-19T07:15:25;4.17;;;3.17;;
10511;SDS011;5304;48.604;2.096;2022-08-19T07:18:09;3.57;;;3.23;;
10511;SDS011;5304;48.604;2.096;2022-08-19T07:21:02;3.20;;;3.00;;
10511;SDS011;5304;48.604;2.096;2022-08-19T07:23:51;5.60;;;2.77;;
10511;SDS011;5304;48.604;2.096;2022-08-19T07:26:39;6.05;;;2.80;;
10511;SDS011;5304;48.604;2.096;2022-08-19T07:29:26;3.27;;;2.80;;
10511;SDS011;5304;48.604;2.096;2022-08-19T07:32:12;5.57;;;2.73;;
10511;SDS011;5304;48.604;2.096;2022-08-19T07:34:56;5.03;;;2.70;;
10511;SDS011;5304;48.604;2.096;2022-08-19T07:37:40;4.53;;;2.83;;
10511;SDS011;5304;48.604;2.096;2022-08-19T07:40:28;5.40;;;2.73;;
10511;SDS011;5304;48.604;2.096;2022-08-19T07:43:13;2.70;;;2.50;;
10511;SDS011;5304;48.604;2.096;2022-08-19T07:45:58;5.03;;;3.03;;
10511;SDS011;5304;48.604;2.096;2022-08-19T07:48:43;4.00;;;2.80;;
10511;SDS011;5304;48.604;2.096;2022-08-19T07:51:31;3.00;;;2.70;;
10511;SDS011;5304;48.604;2.096;2022-08-19T07:54:16;2.83;;;2.50;;
10511;SDS011;5304;48.604;2.096;2022-08-19T07:57:02;3.70;;;2.73;;
10511;SDS011;5304;48.604;2.096;2022-08-19T07:59:47;3.43;;;2.60;;
10511;SDS011;5304;48.604;2.096;2022-08-19T08:02:32;3.50;;;2.83;;
10511;SDS011;5304;48.604;2.096;2022-08-19T08:05:16;2.37;;;2.17;;
10511;SDS011;5304;48.604;2.096;2022-08-19T08:08:19;5.57;;;2.20;;
10511;SDS011;5304;48.604;2.096;2022-08-19T08:11:23;2.10;;;1.93;;
10511;SDS011;5304;48.604;2.096;2022-08-19T08:14:08;2.43;;;2.20;;
10511;SDS011;5304;48.604;2.096;2022-08-19T08:16:53;4.10;;;2.10;;
10511;SDS011;5304;48.604;2.096;2022-08-19T08:19:38;3.10;;;2.30;;
10511;SDS011;5304;48.604;2.096;2022-08-19T08:22:25;5.10;;;2.08;;
10511;SDS011;5304;48.604;2.096;2022-08-19T08:25:28;2.30;;;2.00;;
10511;SDS011;5304;48.604;2.096;2022-08-19T08:28:15;2.70;;;2.00;;
10511;SDS011;5304;48.604;2.096;2022-08-19T08:31:01;2.10;;;1.70;;
10511;SDS011;5304;48.604;2.096;2022-08-19T08:33:46;4.57;;;1.85;;
10511;SDS011;5304;48.604;2.096;2022-08-19T08:36:31;2.35;;;2.15;;
10511;SDS011;5304;48.604;2.096;2022-08-19T08:39:18;2.00;;;1.85;;
10511;SDS011;5304;48.604;2.096;2022-08-19T08:45:03;4.38;;;2.20;;
10511;SDS011;5304;48.604;2.096;2022-08-19T08:48:00;2.10;;;2.00;;
10511;SDS011;5304;48.604;2.096;2022-08-19T08:50:47;3.03;;;1.98;;
10511;SDS011;5304;48.604;2.096;2022-08-19T08:53:36;4.55;;;2.47;;
10511;SDS011;5304;48.604;2.096;2022-08-19T08:56:21;3.60;;;2.28;;
10511;SDS011;5304;48.604;2.096;2022-08-19T08:59:12;2.38;;;2.17;;
10511;SDS011;5304;48.604;2.096;2022-08-19T09:02:04;3.58;;;2.50;;
10511;SDS011;5304;48.604;2.096;2022-08-19T09:04:48;3.28;;;2.38;;
10511;SDS011;5304;48.604;2.096;2022-08-19T09:16:23;3.05;;;2.20;;
10511;SDS011;5304;48.604;2.096;2022-08-19T09:19:10;2.20;;;2.00;;
10511;SDS011;5304;48.604;2.096;2022-08-19T09:21:55;4.18;;;2.42;;
10511;SDS011;5304;48.604;2.096;2022-08-19T09:24:40;2.33;;;1.90;;
10511;SDS011;5304;48.604;2.096;2022-08-19T09:27:28;3.45;;;2.10;;
10511;SDS011;5304;48.604;2.096;2022-08-19T09:30:15;4.07;;;2.47;;
10511;SDS011;5304;48.604;2.096;2022-08-19T09:33:02;2.35;;;2.13;;
10511;SDS011;5304;48.604;2.096;2022-08-19T09:35:47;2.30;;;2.10;;
10511;SDS011;5304;48.604;2.096;2022-08-19T09:38:31;2.28;;;2.08;;
10511;SDS011;5304;48.604;2.096;2022-08-19T09:41:17;2.10;;;1.90;;
10511;SDS011;5304;48.604;2.096;2022-08-19T09:44:04;2.40;;;2.20;;
10511;SDS011;5304;48.604;2.096;2022-08-19T09:46:48;3.25;;;2.17;;
10511;SDS011;5304;48.604;2.096;2022-08-19T09:49:34;2.92;;;2.05;;
10511;SDS011;5304;48.604;2.096;2022-08-19T09:52:18;2.55;;;2.00;;
10511;SDS011;5304;48.604;2.096;2022-08-19T09:55:04;6.32;;;2.35;;
10511;SDS011;5304;48.604;2.096;2022-08-19T09:57:53;2.75;;;2.20;;
10511;SDS011;5304;48.604;2.096;2022-08-19T10:00:37;3.40;;;2.20;;
10511;SDS011;5304;48.604;2.096;2022-08-19T10:03:22;2.50;;;2.25;;
10511;SDS011;5304;48.604;2.096;2022-08-19T10:06:07;2.60;;;2.30;;
10511;SDS011;5304;48.604;2.096;2022-08-19T10:08:53;2.38;;;2.17;;
10511;SDS011;5304;48.604;2.096;2022-08-19T10:11:39;4.07;;;2.70;;
10511;SDS011;5304;48.604;2.096;2022-08-19T10:14:24;3.67;;;2.40;;
10511;SDS011;5304;48.604;2.096;2022-08-19T10:17:09;2.20;;;2.00;;
10511;SDS011;5304;48.604;2.096;2022-08-19T10:19:54;4.82;;;2.50;;
10511;SDS011;5304;48.604;2.096;2022-08-19T10:22:38;4.38;;;2.03;;
10511;SDS011;5304;48.604;2.096;2022-08-19T10:25:23;2.45;;;2.20;;
10511;SDS011;5304;48.604;2.096;2022-08-19T10:28:08;2.95;;;2.08;;
10511;SDS011;5304;48.604;2.096;2022-08-19T10:30:55;2.20;;;1.85;;
10511;SDS011;5304;48.604;2.096;2022-08-19T10:33:39;3.10;;;2.30;;
10511;SDS011;5304;48.604;2.096;2022-08-19T10:36:32;4.03;;;2.13;;
10511;SDS011;5304;48.604;2.096;2022-08-19T10:39:18;2.03;;;1.80;;
10511;SDS011;5304;48.604;2.096;2022-08-19T10:42:06;2.28;;;2.10;;
10511;SDS011;5304;48.604;2.096;2022-08-19T10:44:50;2.60;;;1.98;;
10511;SDS011;5304;48.604;2.096;2022-08-19T10:47:35;5.35;;;2.03;;
10511;SDS011;5304;48.604;2.096;2022-08-19T10:50:20;2.03;;;1.88;;
10511;SDS011;5304;48.604;2.096;2022-08-19T10:53:23;1.98;;;1.73;;
10511;SDS011;5304;48.604;2.096;2022-08-19T10:56:09;2.25;;;1.92;;
10511;SDS011;5304;48.604;2.096;2022-08-19T10:59:12;2.28;;;1.58;;
10511;SDS011;5304;48.604;2.096;2022-08-19T11:02:01;3.78;;;2.22;;
10511;SDS011;5304;48.604;2.096;2022-08-19T11:04:47;2.25;;;1.52;;
10511;SDS011;5304;48.604;2.096;2022-08-19T11:07:33;2.15;;;1.95;;
10511;SDS011;5304;48.604;2.096;2022-08-19T11:10:18;2.25;;;1.98;;
10511;SDS011;5304;48.604;2.096;2022-08-19T11:13:02;2.40;;;1.92;;
10511;SDS011;5304;48.604;2.096;2022-08-19T11:15:47;1.92;;;1.83;;
10511;SDS011;5304;48.604;2.096;2022-08-19T11:18:31;2.20;;;1.70;;
10511;SDS011;5304;48.604;2.096;2022-08-19T11:24:07;4.07;;;1.70;;
10511;SDS011;5304;48.604;2.096;2022-08-19T11:26:54;1.60;;;1.50;;
10511;SDS011;5304;48.604;2.096;2022-08-19T11:29:44;2.25;;;1.50;;
10511;SDS011;5304;48.604;2.096;2022-08-19T11:32:29;2.25;;;1.75;;
10511;SDS011;5304;48.604;2.096;2022-08-19T11:35:13;1.80;;;1.60;;
10511;SDS011;5304;48.604;2.096;2022-08-19T11:37:58;2.75;;;1.50;;
10511;SDS011;5304;48.604;2.096;2022-08-19T11:40:45;1.50;;;1.40;;
10511;SDS011;5304;48.604;2.096;2022-08-19T11:43:37;3.30;;;1.90;;
10511;SDS011;5304;48.604;2.096;2022-08-19T11:46:23;1.80;;;1.70;;
10511;SDS011;5304;48.604;2.096;2022-08-19T11:49:09;2.95;;;1.30;;
10511;SDS011;5304;48.604;2.096;2022-08-19T11:51:54;2.85;;;1.60;;
10511;SDS011;5304;48.604;2.096;2022-08-19T11:54:38;1.92;;;1.83;;
10511;SDS011;5304;48.604;2.096;2022-08-19T11:57:23;2.20;;;1.95;;
10511;SDS011;5304;48.604;2.096;2022-08-19T12:00:07;2.00;;;1.90;;
10511;SDS011;5304;48.604;2.096;2022-08-19T12:02:55;1.98;;;1.88;;
10511;SDS011;5304;48.604;2.096;2022-08-19T12:05:39;3.28;;;2.00;;
10511;SDS011;5304;48.604;2.096;2022-08-19T12:08:25;3.53;;;2.10;;
10511;SDS011;5304;48.604;2.096;2022-08-19T12:11:10;5.45;;;2.10;;
10511;SDS011;5304;48.604;2.096;2022-08-19T12:13:55;2.00;;;1.80;;
10511;SDS011;5304;48.604;2.096;2022-08-19T12:16:43;3.90;;;1.98;;
10511;SDS011;5304;48.604;2.096;2022-08-19T12:19:30;3.40;;;1.60;;
10511;SDS011;5304;48.604;2.096;2022-08-19T12:22:14;1.60;;;1.50;;
10511;SDS011;5304;48.604;2.096;2022-08-19T12:24:59;2.20;;;1.60;;
10511;SDS011;5304;48.604;2.096;2022-08-19T12:27:44;1.80;;;1.70;;
10511;SDS011;5304;48.604;2.096;2022-08-19T12:30:29;1.38;;;1.20;;
10511;SDS011;5304;48.604;2.096;2022-08-19T12:33:13;2.55;;;1.58;;
10511;SDS011;5304;48.604;2.096;2022-08-19T12:36:02;1.70;;;1.55;;
10511;SDS011;5304;48.604;2.096;2022-08-19T12:38:49;2.78;;;1.65;;
10511;SDS011;5304;48.604;2.096;2022-08-19T12:41:35;3.97;;;1.67;;
10511;SDS011;5304;48.604;2.096;2022-08-19T12:44:21;1.92;;;1.40;;
10511;SDS011;5304;48.604;2.096;2022-08-19T12:47:07;1.85;;;1.75;;
10511;SDS011;5304;48.604;2.096;2022-08-19T12:49:54;1.95;;;1.30;;
10511;SDS011;5304;48.604;2.096;2022-08-19T12:52:38;1.52;;;1.27;;
10511;SDS011;5304;48.604;2.096;2022-08-19T12:55:25;2.20;;;1.70;;
10511;SDS011;5304;48.604;2.096;2022-08-19T12:58:12;2.55;;;1.52;;
10511;SDS011;5304;48.604;2.096;2022-08-19T13:00:57;1.70;;;1.60;;
10511;SDS011;5304;48.604;2.096;2022-08-19T13:03:41;5.88;;;1.50;;
10511;SDS011;5304;48.604;2.096;2022-08-19T13:06:26;1.55;;;1.45;;
10511;SDS011;5304;48.604;2.096;2022-08-19T13:09:11;1.70;;;1.60;;
10511;SDS011;5304;48.604;2.096;2022-08-19T13:11:55;1.95;;;1.40;;
10511;SDS011;5304;48.604;2.096;2022-08-19T13:14:40;1.40;;;1.30;;
10511;SDS011;5304;48.604;2.096;2022-08-19T13:17:25;2.10;;;1.70;;
10511;SDS011;5304;48.604;2.096;2022-08-19T13:20:10;2.42;;;1.58;;
10511;SDS011;5304;48.604;2.096;2022-08-19T13:22:55;2.40;;;1.70;;
10511;SDS011;5304;48.604;2.096;2022-08-19T13:25:40;1.73;;;1.60;;
10511;SDS011;5304;48.604;2.096;2022-08-19T13:28:25;1.60;;;1.50;;
10511;SDS011;5304;48.604;2.096;2022-08-19T13:31:10;1.67;;;1.58;;
10511;SDS011;5304;48.604;2.096;2022-08-19T13:34:14;1.70;;;1.60;;
10511;SDS011;5304;48.604;2.096;2022-08-19T13:36:59;1.83;;;1.60;;
10511;SDS011;5304;48.604;2.096;2022-08-19T13:39:48;2.33;;;1.67;;
10511;SDS011;5304;48.604;2.096;2022-08-19T13:42:33;2.00;;;1.60;;
10511;SDS011;5304;48.604;2.096;2022-08-19T13:45:19;1.63;;;1.52;;
10511;SDS011;5304;48.604;2.096;2022-08-19T13:48:06;1.77;;;1.55;;
10511;SDS011;5304;48.604;2.096;2022-08-19T13:50:52;2.22;;;1.60;;
10511;SDS011;5304;48.604;2.096;2022-08-19T13:53:38;1.70;;;1.35;;
10511;SDS011;5304;48.604;2.096;2022-08-19T13:56:23;1.60;;;1.33;;
10511;SDS011;5304;48.604;2.096;2022-08-19T13:59:07;4.93;;;1.60;;
10511;SDS011;5304;48.604;2.096;2022-08-19T14:01:52;1.40;;;1.30;;
10511;SDS011;5304;48.604;2.096;2022-08-19T14:04:41;2.25;;;1.42;;
10511;SDS011;5304;48.604;2.096;2022-08-19T14:07:26;3.03;;;1.50;;
10511;SDS011;5304;48.604;2.096;2022-08-19T14:10:11;1.42;;;1.33;;
10511;SDS011;5304;48.604;2.096;2022-08-19T14:12:57;2.70;;;1.45;;
10511;SDS011;5304;48.604;2.096;2022-08-19T14:15:43;1.42;;;1.33;;
10511;SDS011;5304;48.604;2.096;2022-08-19T14:18:28;1.70;;;1.60;;
10511;SDS011;5304;48.604;2.096;2022-08-19T14:21:17;2.33;;;1.30;;
10511;SDS011;5304;48.604;2.096;2022-08-19T14:24:04;1.92;;;1.50;;
10511;SDS011;5304;48.604;2.096;2022-08-19T14:26:48;3.00;;;1.70;;
10511;SDS011;5304;48.604;2.096;2022-08-19T14:29:33;1.95;;;1.35;;
10511;SDS011;5304;48.604;2.096;2022-08-19T14:32:18;5.13;;;1.52;;
10511;SDS011;5304;48.604;2.096;2022-08-19T14:35:03;2.35;;;1.58;;
10511;SDS011;5304;48.604;2.096;2022-08-19T14:37:49;1.73;;;1.55;;
10511;SDS011;5304;48.604;2.096;2022-08-19T14:40:34;2.63;;;1.40;;
10511;SDS011;5304;48.604;2.096;2022-08-19T14:43:19;1.58;;;1.40;;
10511;SDS011;5304;48.604;2.096;2022-08-19T14:46:04;2.20;;;1.20;;
10511;SDS011;5304;48.604;2.096;2022-08-19T14:48:49;1.80;;;1.10;;
10511;SDS011;5304;48.604;2.096;2022-08-19T14:51:34;1.38;;;1.27;;
10511;SDS011;5304;48.604;2.096;2022-08-19T14:54:18;1.20;;;1.10;;
10511;SDS011;5304;48.604;2.096;2022-08-19T14:57:03;1.50;;;1.30;;
10511;SDS011;5304;48.604;2.096;2022-08-19T14:59:47;1.13;;;1.00;;
10511;SDS011;5304;48.604;2.096;2022-08-19T15:02:32;1.20;;;1.10;;
10511;SDS011;5304;48.604;2.096;2022-08-19T15:05:17;0.90;;;0.90;;
10511;SDS011;5304;48.604;2.096;2022-08-19T15:08:03;1.05;;;1.00;;
10511;SDS011;5304;48.604;2.096;2022-08-19T15:10:47;1.00;;;1.00;;
10511;SDS011;5304;48.604;2.096;2022-08-19T15:13:32;1.00;;;0.90;;
10511;SDS011;5304;48.604;2.096;2022-08-19T15:16:17;0.88;;;0.88;;
10511;SDS011;5304;48.604;2.096;2022-08-19T15:19:02;2.63;;;1.02;;
10511;SDS011;5304;48.604;2.096;2022-08-19T15:21:47;1.08;;;0.98;;
10511;SDS011;5304;48.604;2.096;2022-08-19T15:24:32;3.72;;;0.93;;
10511;SDS011;5304;48.604;2.096;2022-08-19T15:27:18;1.23;;;1.10;;
10511;SDS011;5304;48.604;2.096;2022-08-19T15:30:03;1.08;;;1.00;;
10511;SDS011;5304;48.604;2.096;2022-08-19T15:32:48;1.23;;;1.00;;
10511;SDS011;5304;48.604;2.096;2022-08-19T15:35:33;1.20;;;1.10;;
10511;SDS011;5304;48.604;2.096;2022-08-19T15:38:18;1.20;;;1.10;;
10511;SDS011;5304;48.604;2.096;2022-08-19T15:41:05;2.25;;;1.10;;
10511;SDS011;5304;48.604;2.096;2022-08-19T15:44:11;1.88;;;1.00;;
10511;SDS011;5304;48.604;2.096;2022-08-19T15:46:57;1.40;;;1.08;;
10511;SDS011;5304;48.604;2.096;2022-08-19T15:49:42;1.38;;;0.90;;
10511;SDS011;5304;48.604;2.096;2022-08-19T15:52:26;1.25;;;1.10;;
10511;SDS011;5304;48.604;2.096;2022-08-19T15:55:10;5.07;;;1.40;;
10511;SDS011;5304;48.604;2.096;2022-08-19T15:57:55;1.75;;;1.10;;
10511;SDS011;5304;48.604;2.096;2022-08-19T16:01:01;3.80;;;1.25;;
10511;SDS011;5304;48.604;2.096;2022-08-19T16:04:07;4.30;;;1.52;;
10511;SDS011;5304;48.604;2.096;2022-08-19T16:07:10;3.97;;;1.60;;
10511;SDS011;5304;48.604;2.096;2022-08-19T16:09:55;3.83;;;1.73;;
10511;SDS011;5304;48.604;2.096;2022-08-19T16:12:40;3.90;;;1.40;;
10511;SDS011;5304;48.604;2.096;2022-08-19T16:15:26;3.72;;;1.80;;
10511;SDS011;5304;48.604;2.096;2022-08-19T16:18:13;5.10;;;1.95;;
10511;SDS011;5304;48.604;2.096;2022-08-19T16:20:58;8.63;;;1.88;;
10511;SDS011;5304;48.604;2.096;2022-08-19T16:23:46;5.55;;;1.80;;
10511;SDS011;5304;48.604;2.096;2022-08-19T16:26:32;5.28;;;2.13;;
10511;SDS011;5304;48.604;2.096;2022-08-19T16:29:17;3.42;;;1.73;;
10511;SDS011;5304;48.604;2.096;2022-08-19T16:32:03;5.03;;;1.85;;
10511;SDS011;5304;48.604;2.096;2022-08-19T16:34:48;6.93;;;1.90;;
10511;SDS011;5304;48.604;2.096;2022-08-19T16:37:33;5.18;;;2.25;;
10511;SDS011;5304;48.604;2.096;2022-08-19T16:40:18;6.60;;;1.98;;
10511;SDS011;5304;48.604;2.096;2022-08-19T16:43:03;2.67;;;1.67;;
10511;SDS011;5304;48.604;2.096;2022-08-19T16:45:48;3.30;;;1.98;;
10511;SDS011;5304;48.604;2.096;2022-08-19T16:48:36;2.58;;;1.80;;
10511;SDS011;5304;48.604;2.096;2022-08-19T16:51:26;2.92;;;2.10;;
10511;SDS011;5304;48.604;2.096;2022-08-19T16:54:11;2.75;;;1.90;;
10511;SDS011;5304;48.604;2.096;2022-08-19T16:56:56;3.20;;;1.88;;
10511;SDS011;5304;48.604;2.096;2022-08-19T16:59:41;2.15;;;1.60;;
10511;SDS011;5304;48.604;2.096;2022-08-19T17:02:27;2.38;;;1.70;;
10511;SDS011;5304;48.604;2.096;2022-08-19T17:05:12;2.67;;;1.80;;
10511;SDS011;5304;48.604;2.096;2022-08-19T17:07:57;1.67;;;1.58;;
10511;SDS011;5304;48.604;2.096;2022-08-19T17:10:42;2.97;;;1.70;;
10511;SDS011;5304;48.604;2.096;2022-08-19T17:13:28;2.40;;;1.90;;
10511;SDS011;5304;48.604;2.096;2022-08-19T17:16:13;2.45;;;1.40;;
10511;SDS011;5304;48.604;2.096;2022-08-19T17:18:59;2.40;;;1.48;;
10511;SDS011;5304;48.604;2.096;2022-08-19T17:21:47;3.63;;;1.50;;